createdAt,value
2023-04-22T00:00:19.086Z,38.41
2023-04-22T00:01:19.119Z,38.38
2023-04-22T00:02:18.233Z,38.35
2023-04-22T00:03:19.407Z,38.34
2023-04-22T00:04:18.528Z,38.36
2023-04-22T00:05:20.408Z,38.39
2023-04-22T00:06:19.376Z,38.38
2023-04-22T00:07:18.416Z,38.39
2023-04-22T00:08:19.450Z,38.41
2023-04-22T00:09:19.469Z,38.41
2023-04-22T00:10:18.506Z,38.39
2023-04-22T00:11:18.571Z,38.41
2023-04-22T00:12:18.632Z,38.41
2023-04-22T00:13:18.663Z,38.44
2023-04-22T00:14:19.701Z,38.45
2023-04-22T00:15:19.720Z,38.43
2023-04-22T00:16:18.859Z,38.45
2023-04-22T00:17:19.898Z,38.43
2023-04-22T00:18:18.878Z,38.48
2023-04-22T00:19:19.907Z,38.48
2023-04-22T00:20:19.951Z,38.47
2023-04-22T00:21:19.991Z,38.48
2023-04-22T00:22:19.072Z,38.47
2023-04-22T00:23:19.120Z,38.50
2023-04-22T00:24:19.130Z,38.48
2023-04-22T00:25:20.169Z,38.49
2023-04-22T00:26:20.206Z,38.48
2023-04-22T00:27:19.259Z,38.45
2023-04-22T00:28:20.322Z,38.46
2023-04-22T00:29:20.335Z,38.46
2023-04-22T00:30:20.388Z,38.47
2023-04-22T00:31:20.502Z,38.48
2023-04-22T00:32:19.466Z,38.45
2023-04-22T00:33:20.551Z,38.49
2023-04-22T00:34:20.613Z,38.53
2023-04-22T00:35:20.599Z,38.55
2023-04-22T00:36:20.660Z,38.53
2023-04-22T00:37:19.700Z,38.58
2023-04-22T00:38:20.744Z,38.55
2023-04-22T00:39:20.771Z,38.56
2023-04-22T00:40:20.817Z,38.57
2023-04-22T00:41:20.872Z,38.57
2023-04-22T00:42:20.921Z,38.59
2023-04-22T00:43:19.973Z,38.58
2023-04-22T00:44:20.041Z,38.60
2023-04-22T00:45:21.107Z,38.59
2023-04-22T00:46:20.168Z,38.61
2023-04-22T00:47:21.148Z,38.61
2023-04-22T00:48:21.191Z,38.57
2023-04-22T00:49:21.226Z,38.60
2023-04-22T00:50:21.273Z,38.60
2023-04-22T00:51:21.344Z,38.59
2023-04-22T00:52:20.362Z,38.60
2023-04-22T00:53:20.410Z,38.58
2023-04-22T00:54:20.438Z,38.61
2023-04-22T00:55:20.490Z,38.60
2023-04-22T00:56:21.518Z,38.60
2023-04-22T00:57:20.573Z,38.63
2023-04-22T00:58:20.613Z,38.62
2023-04-22T00:59:20.657Z,38.61
2023-04-22T01:00:21.740Z,38.62
2023-04-22T01:01:20.826Z,38.58
2023-04-22T01:02:20.978Z,38.61
2023-04-22T01:03:21.976Z,38.64
2023-04-22T01:04:21.063Z,38.65
2023-04-22T01:05:20.956Z,38.66
2023-04-22T01:06:22.002Z,38.69
2023-04-22T01:07:21.037Z,38.67
2023-04-22T01:08:21.125Z,38.69
2023-04-22T01:09:22.151Z,38.68
2023-04-22T01:10:21.257Z,38.65
2023-04-22T01:11:22.230Z,38.65
2023-04-22T01:12:22.263Z,38.67
2023-04-22T01:13:22.330Z,38.69
2023-04-22T01:14:21.366Z,38.68
2023-04-22T01:15:21.404Z,38.67
2023-04-22T01:16:22.510Z,38.71
2023-04-22T01:17:22.525Z,38.71
2023-04-22T01:18:21.553Z,38.70
2023-04-22T01:19:21.721Z,38.69
2023-04-22T01:20:21.676Z,38.72
2023-04-22T01:21:21.685Z,38.71
2023-04-22T01:22:21.732Z,38.68
2023-04-22T01:23:21.785Z,38.72
2023-04-22T01:24:22.854Z,38.73
2023-04-22T01:25:21.878Z,38.74
2023-04-22T01:26:21.941Z,38.73
2023-04-22T01:27:22.967Z,38.74
2023-04-22T01:28:22.035Z,38.72
2023-04-22T01:29:22.105Z,38.72
2023-04-22T01:30:22.176Z,38.72
2023-04-22T01:31:22.152Z,38.74
2023-04-22T01:32:22.310Z,38.73
2023-04-22T01:33:22.291Z,38.74
2023-04-22T01:34:22.308Z,38.72
2023-04-22T01:35:23.355Z,38.75
2023-04-22T01:36:23.421Z,38.75
2023-04-22T01:37:23.464Z,38.77
2023-04-22T01:38:22.515Z,38.75
2023-04-22T01:39:22.524Z,38.81
2023-04-22T01:40:22.582Z,38.81
2023-04-22T01:41:22.617Z,38.82
2023-04-22T01:42:22.653Z,38.80
2023-04-22T01:43:23.714Z,38.82
2023-04-22T01:44:23.748Z,38.83
2023-04-22T01:45:23.774Z,38.84
2023-04-22T01:46:23.848Z,38.83
2023-04-22T01:47:22.859Z,38.84
2023-04-22T01:48:23.962Z,38.83
2023-04-22T01:49:23.954Z,38.84
2023-04-22T01:50:22.992Z,38.83
2023-04-22T01:51:23.029Z,38.81
2023-04-22T01:52:23.070Z,38.83
2023-04-22T01:53:24.112Z,38.81
2023-04-22T01:54:24.148Z,38.83
2023-04-22T01:55:23.171Z,38.82
2023-04-22T01:56:24.225Z,38.85
2023-04-22T01:57:23.273Z,38.86
2023-04-22T01:58:23.294Z,38.83
2023-04-22T01:59:23.329Z,38.85
2023-04-22T02:00:24.370Z,38.84
2023-04-22T02:01:23.492Z,38.86
2023-04-22T02:02:24.484Z,38.86
2023-04-22T02:03:24.599Z,38.87
2023-04-22T02:04:23.533Z,38.87
2023-04-22T02:05:24.531Z,38.87
2023-04-22T02:06:24.570Z,38.85
2023-04-22T02:07:24.631Z,38.87
2023-04-22T02:08:24.662Z,38.87
2023-04-22T02:09:23.722Z,38.90
2023-04-22T02:10:24.765Z,38.90
2023-04-22T02:11:24.800Z,38.90
2023-04-22T02:12:23.847Z,38.87
2023-04-22T02:13:24.879Z,38.87
2023-04-22T02:14:23.918Z,38.88
2023-04-22T02:15:25.018Z,38.84
2023-04-22T02:16:24.084Z,38.82
2023-04-22T02:17:24.043Z,38.84
2023-04-22T02:18:25.068Z,38.84
2023-04-22T02:19:24.089Z,38.89
2023-04-22T02:20:25.111Z,38.88
2023-04-22T02:21:25.115Z,38.87
2023-04-22T02:22:24.147Z,38.87
2023-04-22T02:23:25.174Z,38.86
2023-04-22T02:24:24.218Z,38.90
2023-04-22T02:25:25.223Z,38.89
2023-04-22T02:26:24.268Z,38.87
2023-04-22T02:27:25.282Z,38.86
2023-04-22T02:28:24.304Z,38.88
2023-04-22T02:29:24.312Z,38.86
2023-04-22T02:30:25.342Z,38.88
2023-04-22T02:31:25.453Z,38.89
2023-04-22T02:32:25.452Z,38.89
2023-04-22T02:33:24.420Z,38.90
2023-04-22T02:34:25.444Z,38.92
2023-04-22T02:35:25.436Z,38.89
2023-04-22T02:36:24.477Z,38.90
2023-04-22T02:37:24.454Z,38.89
2023-04-22T02:38:24.483Z,38.91
2023-04-22T02:39:25.537Z,38.91
2023-04-22T02:40:24.534Z,38.95
2023-04-22T02:41:25.568Z,38.91
2023-04-22T02:42:25.594Z,38.96
2023-04-22T02:43:24.599Z,38.93
2023-04-22T02:44:25.638Z,38.92
2023-04-22T02:45:25.642Z,38.92
2023-04-22T02:46:24.681Z,38.95
2023-04-22T02:47:24.724Z,38.92
2023-04-22T02:48:24.705Z,38.93
2023-04-22T02:49:24.746Z,38.94
2023-04-22T02:50:24.749Z,38.94
2023-04-22T02:51:25.785Z,38.94
2023-04-22T02:52:24.979Z,38.98
2023-04-22T02:53:25.878Z,38.97
2023-04-22T02:54:25.904Z,38.93
2023-04-22T02:55:24.940Z,38.97
2023-04-22T02:56:24.954Z,38.96
2023-04-22T02:57:25.986Z,38.96
2023-04-22T02:58:25.010Z,38.93
2023-04-22T02:59:26.058Z,38.91
2023-04-22T03:00:25.105Z,38.97
2023-04-22T03:01:25.307Z,38.97
2023-04-22T03:02:25.288Z,38.97
2023-04-22T03:03:25.327Z,38.96
2023-04-22T03:04:25.451Z,38.93
2023-04-22T03:05:25.275Z,38.96
2023-04-22T03:06:26.299Z,38.95
2023-04-22T03:07:25.293Z,38.98
2023-04-22T03:08:25.365Z,38.99
2023-04-22T03:09:26.327Z,39.01
2023-04-22T03:10:26.346Z,38.97
2023-04-22T03:11:26.358Z,38.99
2023-04-22T03:12:26.381Z,38.99
2023-04-22T03:13:26.404Z,38.96
2023-04-22T03:14:26.451Z,39.01
2023-04-22T03:15:25.449Z,39.01
2023-04-22T03:16:25.504Z,38.97
2023-04-22T03:17:25.521Z,38.98
2023-04-22T03:18:26.533Z,38.96
2023-04-22T03:19:26.545Z,38.98
2023-04-22T03:20:25.527Z,38.99
2023-04-22T03:21:25.544Z,38.99
2023-04-22T03:22:26.561Z,38.99
2023-04-22T03:23:26.586Z,39.00
2023-04-22T03:24:25.628Z,38.99
2023-04-22T03:25:26.625Z,38.96
2023-04-22T03:26:25.629Z,38.99
2023-04-22T03:27:26.639Z,38.99
2023-04-22T03:28:25.634Z,39.02
2023-04-22T03:29:26.653Z,39.02
2023-04-22T03:30:25.650Z,38.99
2023-04-22T03:31:26.709Z,39.01
2023-04-22T03:32:25.681Z,39.01
2023-04-22T03:33:25.716Z,39.01
2023-04-22T03:34:26.750Z,39.02
2023-04-22T03:35:26.710Z,39.01
2023-04-22T03:36:25.734Z,39.01
2023-04-22T03:37:25.733Z,39.02
2023-04-22T03:38:25.743Z,39.03
2023-04-22T03:39:26.764Z,39.03
2023-04-22T03:40:25.777Z,39.02
2023-04-22T03:41:26.794Z,39.04
2023-04-22T03:42:25.781Z,39.02
2023-04-22T03:43:26.788Z,39.01
2023-04-22T03:44:26.822Z,39.00
2023-04-22T03:45:25.816Z,39.00
2023-04-22T03:46:25.931Z,39.00
2023-04-22T03:47:25.852Z,39.01
2023-04-22T03:48:26.846Z,39.01
2023-04-22T03:49:26.865Z,39.01
2023-04-22T03:50:26.842Z,39.01
2023-04-22T03:51:26.846Z,38.99
2023-04-22T03:52:25.884Z,38.99
2023-04-22T03:53:25.864Z,39.00
2023-04-22T03:54:26.876Z,39.01
2023-04-22T03:55:26.875Z,39.01
2023-04-22T03:56:25.917Z,39.02
2023-04-22T03:57:25.912Z,39.02
2023-04-22T03:58:25.919Z,39.04
2023-04-22T03:59:26.958Z,39.05
2023-04-22T04:00:25.956Z,39.00
2023-04-22T04:01:25.982Z,39.00
2023-04-22T04:02:26.197Z,39.01
2023-04-22T04:03:27.814Z,38.99
2023-04-22T04:04:26.265Z,38.99
2023-04-22T04:05:26.264Z,38.98
2023-04-22T04:06:25.997Z,38.98
2023-04-22T04:07:26.975Z,39.00
2023-04-22T04:08:25.958Z,38.99
2023-04-22T04:09:25.961Z,38.98
2023-04-22T04:10:25.970Z,38.98
2023-04-22T04:11:26.943Z,38.96
2023-04-22T04:12:26.950Z,39.00
2023-04-22T04:13:25.927Z,38.98
2023-04-22T04:14:26.941Z,38.97
2023-04-22T04:15:26.912Z,38.99
2023-04-22T04:16:25.960Z,38.97
2023-04-22T04:17:26.083Z,39.00
2023-04-22T04:18:26.924Z,38.98
2023-04-22T04:19:26.906Z,38.98
2023-04-22T04:20:25.890Z,38.96
2023-04-22T04:21:25.883Z,38.97
2023-04-22T04:22:26.871Z,38.99
2023-04-22T04:23:25.864Z,39.01
2023-04-22T04:24:26.879Z,39.01
2023-04-22T04:25:25.846Z,39.04
2023-04-22T04:26:26.847Z,39.02
2023-04-22T04:27:26.833Z,39.02
2023-04-22T04:28:25.858Z,39.01
2023-04-22T04:29:25.818Z,39.00
2023-04-22T04:30:25.834Z,39.01
2023-04-22T04:31:25.828Z,39.00
2023-04-22T04:32:26.842Z,39.01
2023-04-22T04:33:26.785Z,38.99
2023-04-22T04:34:25.809Z,39.02
2023-04-22T04:35:25.772Z,39.04
2023-04-22T04:36:25.760Z,39.04
2023-04-22T04:37:25.770Z,39.02
2023-04-22T04:38:25.760Z,39.00
2023-04-22T04:39:25.754Z,38.99
2023-04-22T04:40:26.757Z,39.01
2023-04-22T04:41:26.745Z,39.01
2023-04-22T04:42:25.733Z,39.01
2023-04-22T04:43:25.794Z,39.02
2023-04-22T04:44:25.746Z,39.02
2023-04-22T04:45:26.721Z,39.00
2023-04-22T04:46:26.753Z,39.03
2023-04-22T04:47:26.794Z,39.03
2023-04-22T04:48:26.716Z,39.01
2023-04-22T04:49:25.691Z,39.03
2023-04-22T04:50:26.689Z,39.02
2023-04-22T04:51:25.697Z,39.01
2023-04-22T04:52:25.673Z,39.01
2023-04-22T04:53:25.673Z,39.00
2023-04-22T04:54:26.667Z,38.99
2023-04-22T04:55:26.656Z,38.98
2023-04-22T04:56:25.631Z,38.96
2023-04-22T04:57:25.635Z,38.97
2023-04-22T04:58:25.617Z,38.94
2023-04-22T04:59:25.640Z,38.92
2023-04-22T05:00:26.664Z,38.95
2023-04-22T05:01:25.685Z,38.94
2023-04-22T05:02:26.016Z,38.93
2023-04-22T05:03:26.017Z,38.89
2023-04-22T05:04:25.698Z,38.92
2023-04-22T05:05:25.603Z,38.92
2023-04-22T05:06:26.559Z,38.91
2023-04-22T05:07:26.566Z,38.90
2023-04-22T05:08:26.567Z,38.90
2023-04-22T05:09:25.581Z,38.88
2023-04-22T05:10:25.548Z,38.89
2023-04-22T05:11:26.535Z,38.90
2023-04-22T05:12:25.552Z,38.90
2023-04-22T05:13:26.565Z,38.90
2023-04-22T05:14:26.521Z,38.92
2023-04-22T05:15:26.513Z,38.88
2023-04-22T05:16:25.641Z,38.87
2023-04-22T05:17:25.558Z,38.88
2023-04-22T05:18:26.506Z,38.89
2023-04-22T05:19:26.509Z,38.89
2023-04-22T05:20:25.482Z,38.88
2023-04-22T05:21:25.473Z,38.90
2023-04-22T05:22:25.464Z,38.89
2023-04-22T05:23:25.464Z,38.88
2023-04-22T05:24:25.451Z,38.90
2023-04-22T05:25:26.457Z,38.87
2023-04-22T05:26:25.449Z,38.89
2023-04-22T05:27:26.468Z,38.89
2023-04-22T05:28:26.472Z,38.89
2023-04-22T05:29:25.510Z,38.89
2023-04-22T05:30:26.502Z,38.89
2023-04-22T05:31:26.577Z,38.88
2023-04-22T05:32:26.728Z,38.85
2023-04-22T05:33:26.600Z,38.85
2023-04-22T05:34:26.574Z,38.84
2023-04-22T05:35:25.571Z,38.85
2023-04-22T05:36:25.578Z,38.87
2023-04-22T05:37:25.594Z,38.86
2023-04-22T05:38:26.614Z,38.90
2023-04-22T05:39:26.615Z,38.85
2023-04-22T05:40:26.665Z,38.84
2023-04-22T05:41:26.652Z,38.86
2023-04-22T05:42:26.693Z,38.83
2023-04-22T05:43:25.734Z,38.81
2023-04-22T05:44:25.752Z,38.84
2023-04-22T05:45:25.780Z,38.84
2023-04-22T05:46:26.847Z,38.85
2023-04-22T05:47:26.805Z,38.82
2023-04-22T05:48:25.854Z,38.81
2023-04-22T05:49:25.864Z,38.81
2023-04-22T05:50:25.908Z,38.80
2023-04-22T05:51:26.924Z,38.82
2023-04-22T05:52:26.953Z,38.80
2023-04-22T05:53:26.996Z,38.79
2023-04-22T05:54:27.103Z,38.81
2023-04-22T05:55:27.075Z,38.81
2023-04-22T05:56:26.118Z,38.81
2023-04-22T05:57:27.149Z,38.76
2023-04-22T05:58:27.186Z,38.76
2023-04-22T05:59:26.231Z,38.77
2023-04-22T06:00:27.295Z,38.78
2023-04-22T06:01:26.327Z,38.75
2023-04-22T06:02:27.492Z,38.75
2023-04-22T06:03:27.724Z,38.75
2023-04-22T06:04:26.791Z,38.76
2023-04-22T06:05:26.618Z,38.72
2023-04-22T06:06:26.563Z,38.71
2023-04-22T06:07:27.611Z,38.73
2023-04-22T06:08:26.652Z,38.70
2023-04-22T06:09:26.719Z,38.67
2023-04-22T06:10:26.768Z,38.66
2023-04-22T06:11:26.829Z,38.68
2023-04-22T06:12:26.855Z,38.65
2023-04-22T06:13:27.906Z,38.65
2023-04-22T06:14:26.941Z,38.65
2023-04-22T06:15:26.985Z,38.67
2023-04-22T06:16:27.046Z,38.65
2023-04-22T06:17:28.222Z,38.65
2023-04-22T06:18:28.106Z,38.63
2023-04-22T06:19:27.180Z,38.62
2023-04-22T06:20:28.282Z,38.64
2023-04-22T06:21:27.278Z,38.65
2023-04-22T06:22:28.306Z,38.65
2023-04-22T06:23:28.368Z,38.62
2023-04-22T06:24:28.405Z,38.58
2023-04-22T06:25:28.465Z,38.62
2023-04-22T06:26:28.486Z,38.59
2023-04-22T06:27:28.520Z,38.55
2023-04-22T06:28:27.576Z,38.55
2023-04-22T06:29:27.605Z,38.54
2023-04-22T06:30:28.634Z,38.55
2023-04-22T06:31:28.691Z,38.55
2023-04-22T06:32:27.725Z,38.56
2023-04-22T06:33:27.765Z,38.53
2023-04-22T06:34:27.814Z,38.53
2023-04-22T06:35:28.864Z,38.51
2023-04-22T06:36:30.630Z,38.54
2023-04-22T06:37:27.887Z,38.52
2023-04-22T06:38:28.905Z,38.51
2023-04-22T06:39:27.878Z,38.50
2023-04-22T06:40:27.930Z,38.51
2023-04-22T06:41:28.912Z,38.48
2023-04-22T06:42:28.855Z,38.46
2023-04-22T06:43:27.834Z,38.43
2023-04-22T06:44:28.838Z,38.45
2023-04-22T06:45:27.839Z,38.48
2023-04-22T06:46:27.845Z,38.47
2023-04-22T06:47:27.899Z,38.45
2023-04-22T06:48:28.815Z,38.46
2023-04-22T06:49:28.814Z,38.45
2023-04-22T06:50:28.824Z,38.47
2023-04-22T06:51:27.783Z,38.40
2023-04-22T06:52:27.799Z,38.43
2023-04-22T06:53:27.778Z,38.41
2023-04-22T06:54:28.769Z,38.40
2023-04-22T06:55:28.786Z,38.37
2023-04-22T06:56:28.771Z,38.40
2023-04-22T06:57:28.742Z,38.43
2023-04-22T06:58:27.776Z,38.40
2023-04-22T06:59:28.734Z,38.35
2023-04-22T07:00:27.732Z,38.38
2023-04-22T07:01:28.773Z,38.37
2023-04-22T07:02:27.801Z,38.36
2023-04-22T07:03:27.949Z,38.37
2023-04-22T07:04:27.763Z,38.35
2023-04-22T07:05:28.688Z,38.35
2023-04-22T07:06:27.709Z,38.34
2023-04-22T07:07:27.676Z,38.35
2023-04-22T07:08:28.697Z,38.33
2023-04-22T07:09:28.675Z,38.35
2023-04-22T07:10:27.710Z,38.33
2023-04-22T07:11:28.679Z,38.33
2023-04-22T07:12:28.661Z,38.31
2023-04-22T07:13:27.682Z,38.30
2023-04-22T07:14:27.714Z,38.37
2023-04-22T07:15:28.755Z,38.33
2023-04-22T07:16:28.859Z,38.30
2023-04-22T07:17:27.852Z,38.32
2023-04-22T07:18:27.822Z,38.27
2023-04-22T07:19:28.836Z,38.29
2023-04-22T07:20:28.860Z,38.28
2023-04-22T07:21:28.890Z,38.28
2023-04-22T07:22:28.963Z,38.27
2023-04-22T07:23:28.950Z,38.29
2023-04-22T07:24:28.982Z,38.21
2023-04-22T07:25:27.981Z,38.21
2023-04-22T07:26:29.001Z,38.20
2023-04-22T07:27:29.007Z,38.27
2023-04-22T07:28:29.059Z,38.20
2023-04-22T07:29:29.061Z,38.17
2023-04-22T07:30:29.073Z,38.14
2023-04-22T07:31:28.124Z,38.15
2023-04-22T07:32:29.124Z,38.15
2023-04-22T07:33:28.125Z,38.17
2023-04-22T07:34:29.147Z,38.15
2023-04-22T07:35:28.137Z,38.17
2023-04-22T07:36:29.165Z,38.14
2023-04-22T07:37:28.163Z,38.11
2023-04-22T07:38:28.208Z,38.10
2023-04-22T07:39:29.189Z,38.11
2023-04-22T07:40:29.238Z,38.12
2023-04-22T07:41:29.216Z,38.09
2023-04-22T07:42:29.241Z,38.09
2023-04-22T07:43:28.276Z,38.12
2023-04-22T07:44:29.281Z,38.15
2023-04-22T07:45:29.328Z,38.16
2023-04-22T07:46:29.310Z,38.19
2023-04-22T07:47:28.343Z,38.16
2023-04-22T07:48:29.329Z,38.18
2023-04-22T07:49:29.330Z,38.17
2023-04-22T07:50:29.339Z,38.23
2023-04-22T07:51:28.350Z,38.19
2023-04-22T07:52:29.371Z,38.20
2023-04-22T07:53:28.382Z,38.23
2023-04-22T07:54:28.384Z,38.22
2023-04-22T07:55:28.413Z,38.22
2023-04-22T07:56:28.444Z,38.24
2023-04-22T07:57:28.437Z,38.28
2023-04-22T07:58:29.462Z,38.29
2023-04-22T07:59:29.468Z,38.29
2023-04-22T08:00:28.509Z,38.27
2023-04-22T08:01:28.498Z,38.32
2023-04-22T08:02:29.580Z,38.29
2023-04-22T08:03:29.767Z,38.31
2023-04-22T08:04:28.710Z,38.28
2023-04-22T08:05:29.525Z,38.30
2023-04-22T08:06:29.565Z,38.29
2023-04-22T08:07:32.984Z,38.29
2023-04-22T08:08:28.548Z,38.31
2023-04-22T08:09:28.566Z,38.31
2023-04-22T08:10:29.530Z,38.34
2023-04-22T08:11:28.555Z,38.34
2023-04-22T08:12:29.654Z,38.32
2023-04-22T08:13:28.508Z,38.30
2023-04-22T08:14:28.506Z,38.32
2023-04-22T08:15:29.510Z,38.30
2023-04-22T08:16:29.661Z,38.31
2023-04-22T08:17:28.635Z,38.30
2023-04-22T08:18:29.485Z,38.29
2023-04-22T08:19:29.466Z,38.32
2023-04-22T08:20:28.458Z,38.31
2023-04-22T08:21:28.490Z,38.31
2023-04-22T08:22:29.458Z,38.30
2023-04-22T08:23:29.462Z,38.32
2023-04-22T08:24:28.460Z,38.31
2023-04-22T08:25:29.436Z,38.31
2023-04-22T08:26:28.436Z,38.31
2023-04-22T08:27:28.426Z,38.30
2023-04-22T08:28:28.451Z,38.31
2023-04-22T08:29:29.401Z,38.30
2023-04-22T08:30:28.389Z,38.24
2023-04-22T08:31:29.421Z,38.27
2023-04-22T08:32:28.416Z,38.30
2023-04-22T08:33:28.393Z,38.32
2023-04-22T08:34:28.371Z,38.31
2023-04-22T08:35:30.275Z,38.26
2023-04-22T08:36:28.359Z,38.21
2023-04-22T08:37:29.363Z,38.24
2023-04-22T08:38:29.361Z,38.24
2023-04-22T08:39:29.382Z,38.25
2023-04-22T08:40:28.422Z,38.22
2023-04-22T08:41:29.454Z,38.21
2023-04-22T08:42:28.485Z,38.18
2023-04-22T08:43:28.541Z,38.19
2023-04-22T08:44:29.577Z,38.23
2023-04-22T08:45:29.594Z,38.23
2023-04-22T08:46:28.730Z,38.26
2023-04-22T08:47:28.685Z,38.28
2023-04-22T08:48:29.759Z,38.27
2023-04-22T08:49:28.752Z,38.26
2023-04-22T08:50:28.796Z,38.27
2023-04-22T08:51:28.863Z,38.25
2023-04-22T08:52:28.880Z,38.21
2023-04-22T08:53:29.913Z,38.24
2023-04-22T08:54:28.960Z,38.30
2023-04-22T08:55:29.000Z,38.27
2023-04-22T08:56:29.023Z,38.31
2023-04-22T08:57:30.053Z,38.27
2023-04-22T08:58:30.086Z,38.30
2023-04-22T08:59:29.122Z,38.30
2023-04-22T09:00:29.180Z,38.28
2023-04-22T09:01:30.283Z,38.26
2023-04-22T09:02:30.301Z,38.28
2023-04-22T09:03:29.392Z,38.30
2023-04-22T09:04:29.388Z,38.23
2023-04-22T09:05:30.389Z,38.21
2023-04-22T09:06:30.457Z,38.24
2023-04-22T09:07:29.476Z,38.28
2023-04-22T09:08:30.510Z,38.20
2023-04-22T09:09:29.553Z,38.22
2023-04-22T09:10:29.572Z,38.25
2023-04-22T09:11:29.594Z,38.23
2023-04-22T09:12:30.638Z,38.26
2023-04-22T09:13:29.686Z,38.25
2023-04-22T09:14:30.733Z,38.23
2023-04-22T09:15:29.765Z,38.24
2023-04-22T09:16:30.927Z,38.22
2023-04-22T09:17:29.914Z,38.22
2023-04-22T09:18:29.881Z,38.23
2023-04-22T09:19:31.466Z,38.19
2023-04-22T09:20:30.957Z,38.20
2023-04-22T09:21:31.008Z,38.23
2023-04-22T09:22:31.002Z,38.22
2023-04-22T09:23:31.044Z,38.23
2023-04-22T09:24:31.053Z,38.22
2023-04-22T09:25:30.094Z,38.19
2023-04-22T09:26:30.135Z,38.20
2023-04-22T09:27:30.203Z,38.24
2023-04-22T09:28:30.230Z,38.26
2023-04-22T09:29:30.272Z,38.18
2023-04-22T09:30:30.308Z,38.23
2023-04-22T09:31:30.453Z,38.26
2023-04-22T09:32:30.452Z,38.22
2023-04-22T09:33:31.411Z,38.16
2023-04-22T09:34:30.465Z,37.99
2023-04-22T09:35:30.489Z,38.04
2023-04-22T09:36:31.491Z,38.12
2023-04-22T09:37:42.851Z,38.02
2023-04-22T09:38:31.537Z,38.14
2023-04-22T09:39:31.533Z,38.21
2023-04-22T09:40:30.498Z,38.09
2023-04-22T09:41:30.516Z,38.13
2023-04-22T09:42:30.505Z,38.05
2023-04-22T09:43:31.505Z,38.10
2023-04-22T09:44:31.486Z,38.15
2023-04-22T09:45:31.654Z,38.18
2023-04-22T09:46:31.468Z,38.16
2023-04-22T09:47:30.491Z,37.95
2023-04-22T09:48:31.568Z,37.94
2023-04-22T09:49:31.443Z,37.91
2023-04-22T09:50:30.437Z,38.05
2023-04-22T09:51:30.438Z,37.95
2023-04-22T09:52:30.417Z,38.01
2023-04-22T09:53:30.409Z,38.05
2023-04-22T09:54:30.414Z,38.01
2023-04-22T09:55:31.419Z,37.96
2023-04-22T09:56:31.405Z,38.04
2023-04-22T09:57:30.393Z,37.84
2023-04-22T09:58:30.385Z,37.93
2023-04-22T09:59:30.407Z,37.94
2023-04-22T10:00:30.362Z,37.93
2023-04-22T10:01:30.392Z,38.09
2023-04-22T10:02:30.473Z,37.95
2023-04-22T10:03:30.379Z,37.96
2023-04-22T10:04:30.461Z,38.01
2023-04-22T10:05:31.349Z,38.00
2023-04-22T10:07:50.441Z,38.03
2023-04-22T10:08:49.836Z,38.09
2023-04-22T10:09:49.940Z,37.93
2023-04-22T10:10:51.133Z,37.96
2023-04-22T10:11:49.784Z,38.01
2023-04-22T10:12:50.907Z,38.02
2023-04-22T10:13:50.848Z,38.04
2023-04-22T10:14:50.824Z,37.96
2023-04-22T10:15:50.787Z,37.94
2023-04-22T10:16:50.820Z,37.92
2023-04-22T10:17:49.782Z,38.00
2023-04-22T10:18:50.905Z,38.00
2023-04-22T10:19:49.743Z,37.96
2023-04-22T10:20:49.740Z,37.94
2023-04-22T10:21:49.708Z,37.98
2023-04-22T10:22:50.757Z,38.03
2023-04-22T10:23:50.814Z,37.98
2023-04-22T10:24:50.834Z,37.93
2023-04-22T10:25:49.908Z,37.93
2023-04-22T10:26:51.545Z,37.98
2023-04-22T10:27:51.031Z,37.92
2023-04-22T10:28:50.145Z,38.00
2023-04-22T10:29:50.176Z,37.95
2023-04-22T10:30:50.300Z,37.93
2023-04-22T10:31:51.255Z,38.01
2023-04-22T10:32:51.358Z,38.02
2023-04-22T10:33:50.426Z,37.94
2023-04-22T10:34:50.386Z,37.90
2023-04-22T10:35:51.481Z,37.96
2023-04-22T10:36:50.504Z,37.98
2023-04-22T10:37:50.514Z,37.95
2023-04-22T10:38:51.586Z,37.95
2023-04-22T10:39:51.625Z,38.02
2023-04-22T10:40:50.676Z,37.95
2023-04-22T10:41:50.694Z,37.85
2023-04-22T10:42:51.836Z,37.95
2023-04-22T10:43:51.759Z,37.96
2023-04-22T10:44:50.845Z,37.97
2023-04-22T10:45:51.928Z,37.95
2023-04-22T10:46:50.923Z,37.91
2023-04-22T10:47:51.985Z,37.89
2023-04-22T10:48:52.012Z,37.92
2023-04-22T10:49:52.173Z,37.97
2023-04-22T10:50:51.103Z,37.92
2023-04-22T10:51:52.245Z,38.09
2023-04-22T10:52:52.304Z,37.86
2023-04-22T10:53:52.356Z,37.90
2023-04-22T10:54:52.335Z,38.00
2023-04-22T10:55:51.393Z,37.96
2023-04-22T10:56:58.038Z,37.87
2023-04-22T10:57:52.386Z,37.94
2023-04-22T10:58:52.425Z,37.90
2023-04-22T10:59:52.505Z,37.96
2023-04-22T11:00:53.989Z,38.06
2023-04-22T11:01:51.385Z,37.90
2023-04-22T11:02:51.425Z,37.91
2023-04-22T11:03:52.471Z,37.96
2023-04-22T11:04:51.384Z,37.97
2023-04-22T11:05:52.369Z,37.91
2023-04-22T11:06:51.367Z,37.96
2023-04-22T11:07:52.387Z,37.88
2023-04-22T11:08:52.399Z,37.95
2023-04-22T11:09:53.893Z,38.02
2023-04-22T11:10:52.407Z,37.93
2023-04-22T11:11:52.466Z,37.87
2023-04-22T11:12:51.357Z,37.97
2023-04-22T11:13:52.427Z,37.92
2023-04-22T11:14:52.315Z,37.91
2023-04-22T11:15:52.333Z,37.96
2023-04-22T11:16:52.513Z,37.90
2023-04-22T11:17:51.306Z,37.91
2023-04-22T11:18:52.303Z,37.88
2023-04-22T11:19:51.276Z,37.90
2023-04-22T11:20:52.262Z,37.98
2023-04-22T11:21:52.219Z,37.91
2023-04-22T11:22:52.993Z,37.92
2023-04-22T11:23:52.242Z,37.91
2023-04-22T11:24:51.205Z,37.90
2023-04-22T11:25:52.270Z,37.92
2023-04-22T11:26:51.299Z,37.88
2023-04-22T11:27:52.213Z,37.93
2023-04-22T11:28:51.258Z,37.91
2023-04-22T11:29:52.295Z,37.96
2023-04-22T11:30:52.262Z,37.92
2023-04-22T11:31:52.212Z,37.92
2023-04-22T11:32:52.223Z,37.92
2023-04-22T11:33:51.215Z,37.94
2023-04-22T11:34:52.386Z,37.97
2023-04-22T11:35:52.473Z,37.96
2023-04-22T11:36:52.439Z,37.96
2023-04-22T11:37:51.418Z,38.05
2023-04-22T11:38:52.564Z,38.02
2023-04-22T11:40:13.675Z,37.99
2023-04-22T11:40:52.620Z,37.92
2023-04-22T11:41:51.510Z,37.96
2023-04-22T11:42:52.521Z,37.95
2023-04-22T11:43:52.506Z,37.99
2023-04-22T11:44:52.560Z,38.00
2023-04-22T11:45:52.519Z,37.94
2023-04-22T11:46:52.448Z,37.95
2023-04-22T11:47:52.546Z,37.96
2023-04-22T11:48:52.429Z,38.04
2023-04-22T11:49:52.429Z,37.98
2023-04-22T11:50:53.587Z,38.01
2023-04-22T11:51:52.545Z,37.94
2023-04-22T11:52:51.579Z,37.96
2023-04-22T11:53:52.735Z,38.00
2023-04-22T11:54:52.707Z,38.01
2023-04-22T11:55:52.788Z,37.95
2023-04-22T11:56:53.461Z,37.97
2023-04-22T11:57:52.869Z,37.99
2023-04-22T11:58:53.001Z,38.02
2023-04-22T11:59:51.917Z,38.00
2023-04-22T12:00:52.973Z,38.01
2023-04-22T12:01:53.076Z,38.02
2023-04-22T12:02:52.167Z,38.01
2023-04-22T12:03:52.227Z,37.97
2023-04-22T12:04:53.134Z,37.99
2023-04-22T12:05:52.197Z,38.00
2023-04-22T12:06:53.365Z,37.98
2023-04-22T12:07:52.283Z,38.02
2023-04-22T12:08:52.402Z,37.99
2023-04-22T12:09:53.474Z,38.03
2023-04-22T12:10:52.466Z,38.03
2023-04-22T12:11:53.749Z,38.04
2023-04-22T12:12:52.509Z,38.01
2023-04-22T12:13:52.562Z,38.04
2023-04-22T12:14:53.598Z,38.06
2023-04-22T12:15:52.657Z,37.99
2023-04-22T12:16:52.751Z,38.03
2023-04-22T12:17:52.820Z,38.01
2023-04-22T12:18:53.828Z,38.04
2023-04-22T12:19:53.835Z,38.03
2023-04-22T12:20:52.881Z,38.03
2023-04-22T12:21:53.961Z,38.02
2023-04-22T12:22:54.045Z,38.02
2023-04-22T12:23:54.078Z,38.02
2023-04-22T12:24:54.090Z,38.03
2023-04-22T12:25:53.125Z,38.03
2023-04-22T12:26:53.181Z,38.04
2023-04-22T12:27:54.254Z,38.05
2023-04-22T12:28:53.325Z,38.04
2023-04-22T12:29:53.322Z,38.02
2023-04-22T12:30:54.433Z,38.06
2023-04-22T12:31:53.416Z,38.04
2023-04-22T12:32:53.537Z,38.01
2023-04-22T12:33:54.558Z,38.05
2023-04-22T12:34:53.581Z,38.02
2023-04-22T12:35:54.638Z,38.04
2023-04-22T12:36:53.657Z,38.05
2023-04-22T12:37:54.735Z,38.06
2023-04-22T12:38:54.790Z,38.02
2023-04-22T12:39:54.832Z,38.03
2023-04-22T12:40:54.870Z,38.06
2023-04-22T12:41:54.904Z,38.02
2023-04-22T12:42:54.978Z,38.03
2023-04-22T12:43:54.035Z,38.00
2023-04-22T12:44:54.098Z,38.00
2023-04-22T12:45:55.126Z,38.04
2023-04-22T12:46:55.170Z,38.04
2023-04-22T12:47:54.314Z,38.08
2023-04-22T12:48:54.267Z,38.03
2023-04-22T12:49:54.320Z,38.05
2023-04-22T12:50:55.424Z,38.05
2023-04-22T12:51:54.437Z,38.08
2023-04-22T12:52:54.486Z,38.07
2023-04-22T12:53:55.523Z,38.13